Burket, Indiana
Current Conditions -  °F | °C
As of 7:55 AM on Wednesday 26 Nov 2014 (Local Time) from KASW Reporting Station
Overcast Overcast  
Wind Chill: 25°   Ceiling: 1400
Heat Index: 25°   Visibility: 10mi
Dew Point: 19°   Wind: 3mph
Humidity: 80%   Direction: 100°E
Pressure: 30.16"   Gusts: NA
Location:  41.16°N, 85.97°W
Report Text: KASW 261255Z AUTO 10003KT 10SM OVC014 M04/M07 A3016 RMK AO2
Loading
Personal Weather Stations






























Interactive Weather Map New forecast layout! Learn more

10-Day Weather Forecast

Advertisements
Track Severe Weather on mobile